createdAt,value
2022-12-26T00:00:17.372Z,88.10
2022-12-26T00:02:48.558Z,88.20
2022-12-26T00:05:22.537Z,88.20
2022-12-26T00:07:54.973Z,87.60
2022-12-26T00:10:26.234Z,87.90
2022-12-26T00:13:40.194Z,88.00
2022-12-26T00:15:29.398Z,88.00
2022-12-26T00:18:01.007Z,87.70
2022-12-26T00:20:33.948Z,87.70
2022-12-26T00:23:05.074Z,87.50
2022-12-26T00:25:37.198Z,87.50
2022-12-26T00:28:08.645Z,87.70
2022-12-26T00:30:41.129Z,87.60
2022-12-26T00:33:12.557Z,87.10
2022-12-26T00:35:44.381Z,86.90
2022-12-26T00:38:16.771Z,87.10
2022-12-26T00:40:49.241Z,87.30
2022-12-26T00:43:20.065Z,86.80
2022-12-26T00:45:54.490Z,86.50
2022-12-26T00:48:25.279Z,86.50
2022-12-26T00:50:56.272Z,86.20
2022-12-26T00:53:27.609Z,86.00
2022-12-26T00:56:00.857Z,85.90
2022-12-26T00:58:32.101Z,85.60
2022-12-26T01:01:20.192Z,85.20
2022-12-26T01:03:54.080Z,84.90
2022-12-26T01:06:25.417Z,84.60
2022-12-26T01:08:56.539Z,84.10
2022-12-26T01:11:46.585Z,83.90
2022-12-26T01:14:19.766Z,83.70
2022-12-26T01:16:55.924Z,83.10
2022-12-26T01:19:26.975Z,82.90
2022-12-26T01:21:58.458Z,83.00
2022-12-26T01:24:29.373Z,82.80
2022-12-26T01:27:00.572Z,82.50
2022-12-26T01:29:33.459Z,82.40
2022-12-26T01:32:07.638Z,82.00
2022-12-26T01:34:40.674Z,82.10
2022-12-26T01:37:12.474Z,81.80
2022-12-26T01:39:43.738Z,81.20
2022-12-26T01:42:20.286Z,80.50
2022-12-26T01:45:28.418Z,80.30
2022-12-26T01:48:17.338Z,80.00
2022-12-26T01:50:50.775Z,79.80
2022-12-26T01:53:35.873Z,80.20
2022-12-26T01:56:13.881Z,80.00
2022-12-26T01:58:53.801Z,79.30
2022-12-26T02:01:27.267Z,78.80
2022-12-26T02:04:15.925Z,78.40
2022-12-26T02:06:47.140Z,78.90
2022-12-26T02:09:18.900Z,79.20
2022-12-26T02:12:35.906Z,78.30
2022-12-26T02:14:31.032Z,78.10
2022-12-26T02:17:02.416Z,77.70
2022-12-26T02:19:39.180Z,77.60
2022-12-26T02:22:25.454Z,77.80
2022-12-26T02:25:26.937Z,77.70
2022-12-26T02:28:03.296Z,77.60
2022-12-26T02:30:55.087Z,77.30
2022-12-26T02:33:28.550Z,77.00
2022-12-26T02:36:18.598Z,77.50
2022-12-26T02:39:43.253Z,76.80
2022-12-26T02:42:24.647Z,77.00
2022-12-26T02:45:30.759Z,77.10
2022-12-26T02:48:09.897Z,77.30
2022-12-26T02:51:21.672Z,77.00
2022-12-26T02:54:35.305Z,77.00
2022-12-26T02:57:28.482Z,76.90
2022-12-26T03:00:22.225Z,77.50
2022-12-26T03:03:16.005Z,76.50
2022-12-26T03:06:12.627Z,76.50
2022-12-26T03:09:10.061Z,76.00
2022-12-26T03:12:01.132Z,75.80
2022-12-26T03:14:52.992Z,74.90
2022-12-26T03:17:48.879Z,73.60
2022-12-26T03:20:28.316Z,73.30
2022-12-26T03:23:04.943Z,72.90
2022-12-26T03:26:13.857Z,72.40
2022-12-26T03:28:46.555Z,71.20
2022-12-26T03:31:20.014Z,71.70
2022-12-26T03:34:08.967Z,70.70
2022-12-26T03:36:57.465Z,70.70
2022-12-26T03:40:08.492Z,70.40
2022-12-26T03:43:08.626Z,70.30
2022-12-26T03:46:02.104Z,69.50
2022-12-26T03:49:09.880Z,68.80
2022-12-26T03:52:16.344Z,69.30
2022-12-26T03:55:12.871Z,68.40
2022-12-26T03:58:02.026Z,68.50
2022-12-26T04:00:52.998Z,69.60
2022-12-26T04:03:44.566Z,68.10
2022-12-26T04:06:38.203Z,67.00
2022-12-26T04:09:34.903Z,66.40
2022-12-26T04:12:26.371Z,66.80
2022-12-26T04:15:17.040Z,65.80
2022-12-26T04:18:16.945Z,66.20
2022-12-26T04:21:02.645Z,66.00
2022-12-26T04:24:03.090Z,64.20
2022-12-26T04:26:59.779Z,64.40
2022-12-26T04:29:48.745Z,63.30
2022-12-26T04:36:09.383Z,62.60
2022-12-26T04:39:08.811Z,62.10
2022-12-26T04:41:59.520Z,62.20
2022-12-26T04:44:34.021Z,62.80
2022-12-26T04:47:05.475Z,61.90
2022-12-26T04:50:04.564Z,60.80
2022-12-26T04:52:53.173Z,61.60
2022-12-26T04:55:24.082Z,60.10
2022-12-26T04:57:55.170Z,59.10
2022-12-26T05:00:29.357Z,59.10
2022-12-26T05:03:19.376Z,59.70
2022-12-26T05:06:10.519Z,58.90
2022-12-26T05:09:01.116Z,59.50
2022-12-26T05:11:33.949Z,58.70
2022-12-26T05:14:06.575Z,58.50
2022-12-26T05:16:55.431Z,59.60
2022-12-26T05:19:45.006Z,58.70
2022-12-26T05:22:33.968Z,59.10
2022-12-26T05:25:42.670Z,58.80
2022-12-26T05:28:36.988Z,59.10
2022-12-26T05:31:08.662Z,57.60
2022-12-26T05:34:00.187Z,56.00
2022-12-26T05:36:33.532Z,56.50
2022-12-26T05:39:04.537Z,57.30
2022-12-26T05:41:38.954Z,57.10
2022-12-26T05:44:10.768Z,56.80
2022-12-26T05:46:43.592Z,56.40
2022-12-26T05:49:15.188Z,57.50
2022-12-26T05:51:49.191Z,56.60
2022-12-26T05:54:20.206Z,56.40
2022-12-26T05:56:51.493Z,55.80
2022-12-26T05:59:25.280Z,56.10
2022-12-26T06:01:56.770Z,56.90
2022-12-26T06:04:33.780Z,55.40
2022-12-26T06:07:05.281Z,56.40
2022-12-26T06:09:36.587Z,56.10
2022-12-26T06:12:08.430Z,55.20
2022-12-26T06:14:40.012Z,55.20
2022-12-26T06:17:11.660Z,54.30
2022-12-26T06:19:46.730Z,55.10
2022-12-26T06:22:15.104Z,55.20
2022-12-26T06:24:46.315Z,54.80
2022-12-26T06:27:17.442Z,55.00
2022-12-26T06:29:48.920Z,54.50
2022-12-26T06:32:20.596Z,54.80
2022-12-26T06:34:51.964Z,54.80
2022-12-26T06:37:23.066Z,54.20
2022-12-26T06:39:57.605Z,55.10
2022-12-26T06:42:29.692Z,55.10
2022-12-26T06:45:01.042Z,53.70
2022-12-26T06:47:32.731Z,53.50
2022-12-26T06:50:04.908Z,53.90
2022-12-26T06:52:35.817Z,54.50
2022-12-26T06:55:07.201Z,52.70
2022-12-26T06:57:38.523Z,52.70
2022-12-26T07:00:10.386Z,51.70
2022-12-26T07:02:41.565Z,52.40
2022-12-26T07:05:13.389Z,52.10
2022-12-26T07:07:44.690Z,53.30
2022-12-26T07:10:19.345Z,51.20
2022-12-26T07:12:52.461Z,52.10
2022-12-26T07:15:23.247Z,51.50
2022-12-26T07:17:55.519Z,51.50
2022-12-26T07:20:28.311Z,53.50
2022-12-26T07:22:59.566Z,52.50
2022-12-26T07:25:31.245Z,51.00
2022-12-26T07:28:02.130Z,50.80
2022-12-26T07:30:33.179Z,50.30
2022-12-26T07:33:04.177Z,49.90
2022-12-26T07:35:35.910Z,49.30
2022-12-26T07:38:07.086Z,50.00
2022-12-26T07:40:38.022Z,50.20
2022-12-26T07:43:12.971Z,50.60
2022-12-26T07:45:46.188Z,50.10
2022-12-26T07:48:17.279Z,50.20
2022-12-26T07:50:48.546Z,50.70
2022-12-26T07:53:20.173Z,51.70
2022-12-26T07:55:53.800Z,51.10
2022-12-26T07:58:29.621Z,51.20
2022-12-26T08:01:04.820Z,51.90
2022-12-26T08:03:36.709Z,51.20
2022-12-26T08:06:07.909Z,51.20
2022-12-26T08:08:38.708Z,51.20
2022-12-26T08:11:11.212Z,51.10
2022-12-26T08:13:42.647Z,50.90
2022-12-26T08:16:15.832Z,51.20
2022-12-26T08:18:48.970Z,51.50
2022-12-26T08:21:20.191Z,50.90
2022-12-26T08:23:51.126Z,51.10
2022-12-26T08:26:23.733Z,50.60
2022-12-26T08:28:55.682Z,51.20
2022-12-26T08:31:27.128Z,51.20
2022-12-26T08:34:00.908Z,51.10
2022-12-26T08:36:32.207Z,51.20
2022-12-26T08:39:03.287Z,51.90
2022-12-26T08:41:34.175Z,51.80
2022-12-26T08:46:37.753Z,51.60
2022-12-26T08:49:09.049Z,51.60
2022-12-26T08:51:41.068Z,51.90
2022-12-26T08:54:13.899Z,51.40
2022-12-26T08:56:45.675Z,52.00
2022-12-26T08:59:17.986Z,52.00
2022-12-26T09:01:49.288Z,52.10
2022-12-26T09:04:21.058Z,51.10
2022-12-26T09:06:52.121Z,51.00
2022-12-26T09:09:23.043Z,51.60
2022-12-26T09:11:55.130Z,51.50
2022-12-26T09:14:26.425Z,51.30
2022-12-26T09:16:57.410Z,52.10
2022-12-26T09:19:29.577Z,51.00
2022-12-26T09:22:18.484Z,51.10
2022-12-26T09:24:49.617Z,50.70
2022-12-26T09:27:20.772Z,51.00
2022-12-26T09:29:52.011Z,50.70
2022-12-26T09:32:22.909Z,51.00
2022-12-26T09:34:54.131Z,50.80
2022-12-26T09:37:25.069Z,50.30
2022-12-26T09:39:56.177Z,50.30
2022-12-26T09:42:50.636Z,50.00
2022-12-26T09:45:24.192Z,50.10
2022-12-26T09:48:00.393Z,50.40
2022-12-26T09:50:37.104Z,50.30
2022-12-26T09:53:23.447Z,50.50
2022-12-26T09:55:57.019Z,50.90
2022-12-26T09:58:51.285Z,50.80
2022-12-26T10:01:24.874Z,51.00
2022-12-26T10:03:58.347Z,51.40
2022-12-26T10:06:32.156Z,51.30
2022-12-26T10:09:31.464Z,51.40
2022-12-26T10:12:05.092Z,52.00
2022-12-26T10:14:44.363Z,52.00
2022-12-26T10:17:32.968Z,52.20
2022-12-26T10:20:12.675Z,52.60
2022-12-26T10:23:04.242Z,53.40
2022-12-26T10:25:46.916Z,52.90
2022-12-26T10:28:26.329Z,53.00
2022-12-26T10:31:00.564Z,53.30
2022-12-26T10:33:41.909Z,53.40
2022-12-26T10:36:33.499Z,53.70
2022-12-26T10:39:07.012Z,53.90
2022-12-26T10:41:40.363Z,54.00
2022-12-26T10:44:14.628Z,54.20
2022-12-26T10:46:48.351Z,54.50
2022-12-26T10:49:22.475Z,54.60
2022-12-26T10:51:57.903Z,54.80
2022-12-26T10:54:31.372Z,55.70
2022-12-26T10:57:03.132Z,55.10
2022-12-26T10:59:42.530Z,55.30
2022-12-26T11:02:33.577Z,55.40
2022-12-26T11:05:27.191Z,55.60
2022-12-26T11:07:47.848Z,55.80
2022-12-26T11:10:21.503Z,55.90
2022-12-26T11:13:01.242Z,56.10
2022-12-26T11:15:44.040Z,56.10
2022-12-26T11:18:26.533Z,56.20
2022-12-26T11:20:57.501Z,56.40
2022-12-26T11:23:32.074Z,56.60
2022-12-26T11:26:04.592Z,56.60
2022-12-26T11:28:40.369Z,56.90
2022-12-26T11:31:14.067Z,56.90
2022-12-26T11:33:52.346Z,57.10
2022-12-26T11:36:25.881Z,57.30
2022-12-26T11:38:59.509Z,57.40
2022-12-26T11:41:38.258Z,57.30
2022-12-26T11:44:15.782Z,57.40
2022-12-26T11:46:56.181Z,57.40
2022-12-26T11:49:33.198Z,57.50
2022-12-26T11:52:06.950Z,57.60
2022-12-26T11:54:41.661Z,57.60
2022-12-26T11:57:21.684Z,57.80
2022-12-26T11:59:54.976Z,57.90
2022-12-26T12:02:30.807Z,58.20
2022-12-26T12:05:09.402Z,58.20
2022-12-26T12:07:59.360Z,58.40
2022-12-26T12:11:01.473Z,58.40
2022-12-26T12:13:50.708Z,58.60
2022-12-26T12:16:34.142Z,58.60
2022-12-26T12:19:32.291Z,59.40
2022-12-26T12:22:15.926Z,58.70
2022-12-26T12:25:01.209Z,58.70
2022-12-26T12:27:46.803Z,58.70
2022-12-26T12:30:34.304Z,58.70
2022-12-26T12:33:25.916Z,58.70
2022-12-26T12:36:05.928Z,58.70
2022-12-26T12:38:42.659Z,58.70
2022-12-26T12:41:36.108Z,58.90
2022-12-26T12:44:29.439Z,59.00
2022-12-26T12:47:20.062Z,59.10
2022-12-26T12:50:08.997Z,59.10
2022-12-26T12:52:49.396Z,59.10
2022-12-26T12:55:35.023Z,59.10
2022-12-26T12:58:17.460Z,59.10
2022-12-26T13:00:50.949Z,59.10
2022-12-26T13:03:24.711Z,59.30
2022-12-26T13:06:16.793Z,59.40
2022-12-26T13:08:58.967Z,59.40
2022-12-26T13:11:45.214Z,59.40
2022-12-26T13:14:18.944Z,59.60
2022-12-26T13:16:55.618Z,59.50
2022-12-26T13:19:32.264Z,59.60
2022-12-26T13:22:09.257Z,59.80
2022-12-26T13:24:50.640Z,60.00
2022-12-26T13:30:22.479Z,60.40
2022-12-26T13:32:53.564Z,60.50
2022-12-26T13:35:55.990Z,60.60
2022-12-26T13:38:32.735Z,60.60
2022-12-26T13:41:07.090Z,60.60
2022-12-26T13:43:58.661Z,60.50
2022-12-26T13:46:46.684Z,60.60
2022-12-26T13:49:41.243Z,60.60
2022-12-26T13:52:27.320Z,60.70
2022-12-26T13:54:54.757Z,60.90
2022-12-26T13:57:43.972Z,60.90
2022-12-26T14:00:24.493Z,61.00
2022-12-26T14:03:18.592Z,61.10
2022-12-26T14:06:03.749Z,61.00
2022-12-26T14:08:55.192Z,61.10
2022-12-26T14:11:27.723Z,61.20
2022-12-26T14:14:17.271Z,61.40
2022-12-26T14:16:56.888Z,61.30
2022-12-26T14:19:55.082Z,61.40
2022-12-26T14:22:43.472Z,61.40
2022-12-26T14:25:35.439Z,61.50
2022-12-26T14:28:20.991Z,61.60
2022-12-26T14:30:57.497Z,61.60
2022-12-26T14:33:31.260Z,61.90
2022-12-26T14:36:45.411Z,61.90
2022-12-26T14:39:23.208Z,61.90
2022-12-26T14:42:41.185Z,62.00
2022-12-26T14:45:32.999Z,62.20
2022-12-26T14:48:08.575Z,62.50
2022-12-26T14:50:59.499Z,62.60
2022-12-26T14:53:38.535Z,62.60
2022-12-26T14:56:24.190Z,62.90
2022-12-26T14:58:58.801Z,63.10
2022-12-26T15:01:37.346Z,63.00
2022-12-26T15:04:13.326Z,64.00
2022-12-26T15:07:16.893Z,63.10
2022-12-26T15:10:13.918Z,63.20
2022-12-26T15:12:59.676Z,63.10
2022-12-26T15:16:13.024Z,63.20
2022-12-26T15:19:19.953Z,63.40
2022-12-26T15:21:56.000Z,63.60
2022-12-26T15:27:38.163Z,63.90
2022-12-26T15:30:27.442Z,64.20
2022-12-26T15:33:19.608Z,64.30
2022-12-26T15:36:09.361Z,64.50
2022-12-26T15:38:51.904Z,64.80
2022-12-26T15:41:43.952Z,65.00
2022-12-26T15:44:23.357Z,65.40
2022-12-26T15:47:17.537Z,65.60
2022-12-26T15:50:00.489Z,65.80
2022-12-26T15:52:56.810Z,65.80
2022-12-26T15:55:49.737Z,66.10
2022-12-26T15:58:41.782Z,66.20
2022-12-26T16:01:14.161Z,66.40
2022-12-26T16:03:58.150Z,66.50
2022-12-26T16:06:27.985Z,66.80
2022-12-26T16:09:04.595Z,67.90
2022-12-26T16:11:48.783Z,67.10
2022-12-26T16:14:40.070Z,67.30
2022-12-26T16:17:19.520Z,67.60
2022-12-26T16:19:55.265Z,67.90
2022-12-26T16:22:47.619Z,67.80
2022-12-26T16:25:25.123Z,68.20
2022-12-26T16:28:01.748Z,68.40
2022-12-26T16:30:37.668Z,76.90
2022-12-26T16:33:09.886Z,76.10
2022-12-26T16:35:44.557Z,69.30
2022-12-26T16:38:22.748Z,69.60
2022-12-26T16:40:59.267Z,70.20
2022-12-26T16:43:41.259Z,83.50
2022-12-26T16:46:13.934Z,81.90
2022-12-26T16:48:45.462Z,83.90
2022-12-26T16:51:47.093Z,71.30
2022-12-26T16:54:26.542Z,77.50
2022-12-26T16:57:08.559Z,73.30
2022-12-26T16:59:47.578Z,72.20
2022-12-26T17:02:22.276Z,78.20
2022-12-26T17:04:58.567Z,72.40
2022-12-26T17:07:28.351Z,72.50
2022-12-26T17:10:01.555Z,72.70
2022-12-26T17:12:37.780Z,73.00
2022-12-26T17:15:10.468Z,73.30
2022-12-26T17:17:43.682Z,99.90
2022-12-26T17:20:30.517Z,94.20
2022-12-26T17:23:02.575Z,92.40
2022-12-26T17:25:35.162Z,92.80
2022-12-26T17:28:15.809Z,93.70
2022-12-26T17:30:52.584Z,93.20
2022-12-26T17:33:26.304Z,92.20
2022-12-26T17:38:42.955Z,90.60
2022-12-26T17:41:16.512Z,90.50
2022-12-26T17:43:49.035Z,90.40
2022-12-26T17:46:21.132Z,84.80
2022-12-26T17:48:52.031Z,74.90
2022-12-26T17:51:23.053Z,75.00
2022-12-26T17:53:54.466Z,75.30
2022-12-26T17:56:28.003Z,75.50
2022-12-26T17:58:58.826Z,76.00
2022-12-26T18:01:29.742Z,76.00
2022-12-26T18:04:01.803Z,76.30
2022-12-26T18:06:32.778Z,76.70
2022-12-26T18:09:03.883Z,77.00
2022-12-26T18:11:35.205Z,90.40
2022-12-26T18:14:06.052Z,91.30
2022-12-26T18:16:36.925Z,91.30
2022-12-26T18:19:07.955Z,77.70
2022-12-26T18:21:38.883Z,77.70
2022-12-26T18:24:10.489Z,77.90
2022-12-26T18:26:41.533Z,78.10
2022-12-26T18:29:13.736Z,78.30
2022-12-26T18:31:44.788Z,80.00
2022-12-26T18:34:15.789Z,78.70
2022-12-26T18:36:47.986Z,79.00
2022-12-26T18:39:19.725Z,81.60
2022-12-26T18:41:50.727Z,79.70
2022-12-26T18:44:21.750Z,79.50
2022-12-26T18:46:52.957Z,82.80
2022-12-26T18:49:23.870Z,80.20
2022-12-26T18:51:54.701Z,80.40
2022-12-26T18:54:25.878Z,80.60
2022-12-26T18:56:56.905Z,90.10
2022-12-26T18:59:28.055Z,89.30
2022-12-26T19:01:59.044Z,92.60
2022-12-26T19:04:29.971Z,94.30
2022-12-26T19:07:00.887Z,92.20
2022-12-26T19:09:31.748Z,92.20
2022-12-26T19:12:02.754Z,82.80
2022-12-26T19:14:33.609Z,83.00
2022-12-26T19:17:04.470Z,83.10
2022-12-26T19:19:35.371Z,83.30
2022-12-26T19:22:06.716Z,83.20
2022-12-26T19:24:37.770Z,83.40
2022-12-26T19:27:08.608Z,83.40
2022-12-26T19:29:39.738Z,83.40
2022-12-26T19:32:10.660Z,83.40
2022-12-26T19:34:41.489Z,83.40
2022-12-26T19:37:12.475Z,83.60
2022-12-26T19:39:43.501Z,83.50
2022-12-26T19:42:14.402Z,91.60
2022-12-26T19:44:45.685Z,90.80
2022-12-26T19:47:16.568Z,91.00
2022-12-26T19:49:47.761Z,91.00
2022-12-26T19:52:18.714Z,90.60
2022-12-26T19:54:49.645Z,90.40
2022-12-26T19:57:20.589Z,87.40
2022-12-26T19:59:51.729Z,84.00
2022-12-26T20:02:22.921Z,84.10
2022-12-26T20:04:54.085Z,84.30
2022-12-26T20:07:24.981Z,84.20
2022-12-26T20:10:15.157Z,84.20
2022-12-26T20:12:46.217Z,85.50
2022-12-26T20:15:17.246Z,85.10
2022-12-26T20:17:48.254Z,88.70
2022-12-26T20:20:19.316Z,88.50
2022-12-26T20:22:53.166Z,87.60
2022-12-26T20:25:22.717Z,86.70
2022-12-26T20:27:53.573Z,86.00
2022-12-26T20:30:24.536Z,87.70
2022-12-26T20:32:55.460Z,87.80
2022-12-26T20:35:26.394Z,85.30
2022-12-26T20:37:57.306Z,85.00
2022-12-26T20:40:28.171Z,85.10
2022-12-26T20:42:58.982Z,85.50
2022-12-26T20:45:29.782Z,86.00
2022-12-26T20:48:00.666Z,86.70
2022-12-26T20:50:31.559Z,86.60
2022-12-26T20:53:02.488Z,87.20
2022-12-26T20:55:33.307Z,86.70
2022-12-26T20:58:04.238Z,86.90
2022-12-26T21:00:35.057Z,87.40
2022-12-26T21:03:06.070Z,87.30
2022-12-26T21:05:37.058Z,86.90
2022-12-26T21:08:28.185Z,86.00
2022-12-26T21:10:59.139Z,87.20
2022-12-26T21:13:30.090Z,87.50
2022-12-26T21:16:06.821Z,87.40
2022-12-26T21:18:34.665Z,87.20
2022-12-26T21:21:17.069Z,87.70
2022-12-26T21:23:48.604Z,87.60
2022-12-26T21:26:19.847Z,87.60
2022-12-26T21:28:50.873Z,87.60
2022-12-26T21:31:21.820Z,87.60
2022-12-26T21:33:53.014Z,87.40
2022-12-26T21:36:24.137Z,87.10
2022-12-26T21:38:55.518Z,87.00
2022-12-26T21:41:27.322Z,86.90
2022-12-26T21:43:58.343Z,87.30
2022-12-26T21:48:59.551Z,86.40
2022-12-26T21:51:30.800Z,87.00
2022-12-26T21:54:02.897Z,87.10
2022-12-26T21:56:33.755Z,87.20
2022-12-26T21:59:26.763Z,87.10
2022-12-26T22:01:57.852Z,87.20
2022-12-26T22:04:31.338Z,87.10
2022-12-26T22:07:02.170Z,86.60
2022-12-26T22:09:33.129Z,86.80
2022-12-26T22:12:21.664Z,87.20
2022-12-26T22:14:52.490Z,87.50
2022-12-26T22:17:23.430Z,87.50
2022-12-26T22:19:54.324Z,87.70
2022-12-26T22:22:25.188Z,87.70
2022-12-26T22:24:56.208Z,88.00
2022-12-26T22:27:27.028Z,88.00
2022-12-26T22:29:57.962Z,88.00
2022-12-26T22:32:29.037Z,88.10
2022-12-26T22:34:59.870Z,88.00
2022-12-26T22:37:30.777Z,88.10
2022-12-26T22:40:01.612Z,88.40
2022-12-26T22:42:33.431Z,88.60
2022-12-26T22:45:04.507Z,88.60
2022-12-26T22:47:35.343Z,88.80
2022-12-26T22:50:06.387Z,89.10
2022-12-26T22:52:37.217Z,89.50
2022-12-26T22:55:09.068Z,89.60
2022-12-26T23:00:34.355Z,89.80
2022-12-26T23:03:05.450Z,89.70
2022-12-26T23:05:37.230Z,90.00
2022-12-26T23:08:09.052Z,89.40
2022-12-26T23:10:40.854Z,88.60
2022-12-26T23:13:14.179Z,88.30
2022-12-26T23:15:59.229Z,88.00
2022-12-26T23:18:58.753Z,88.10
2022-12-26T23:21:41.579Z,87.90
2022-12-26T23:24:15.460Z,88.90
2022-12-26T23:26:51.123Z,86.90
2022-12-26T23:29:44.200Z,87.20
2022-12-26T23:32:15.178Z,86.40
2022-12-26T23:34:47.838Z,85.40
2022-12-26T23:37:18.524Z,86.60
2022-12-26T23:39:49.472Z,87.20
2022-12-26T23:42:20.495Z,87.50
2022-12-26T23:44:51.498Z,88.00
2022-12-26T23:47:23.633Z,88.00
2022-12-26T23:49:54.457Z,88.00
2022-12-26T23:52:29.996Z,88.20
2022-12-26T23:54:57.766Z,88.40
2022-12-26T23:57:28.987Z,88.60
